Wetterdaten: Woche 09.12.13 - 15.12.13 (KW50)
Datum Zeit Temp. A. Feuchte A. Luftdruck Regen Wind Richtung Taupunkt Windchill Windben
09.12.2013 00:00 8,3 C 91 % 1018,2 hPa 0,6 l/m 9,2 km/h (2 Bft) W-NW 6,9 C 6,3 C 21,7 km/h (4 Bft)
09.12.2013 01:00 8,1 C 92 % 1018,4 hPa 1,2 l/m 9,0 km/h (2 Bft) W-NW 6,9 C 6,2 C 20,5 km/h (4 Bft)
09.12.2013 02:00 7,9 C 93 % 1018,3 hPa 1,2 l/m 9,2 km/h (2 Bft) W-SW 6,9 C 5,9 C 22,4 km/h (4 Bft)
09.12.2013 03:00 7,9 C 93 % 1018,5 hPa 1,6 l/m 8,4 km/h (2 Bft) NW 6,8 C 6,4 C 19,8 km/h (4 Bft)
09.12.2013 04:00 7,9 C 93 % 1018,6 hPa 1,0 l/m 7,5 km/h (2 Bft) W 6,8 C 7,0 C 17,7 km/h (3 Bft)
09.12.2013 05:00 8,1 C 93 % 1018,8 hPa 1,2 l/m 7,3 km/h (2 Bft) W-SW 7,0 C 7,3 C 18,4 km/h (3 Bft)
09.12.2013 06:00 8,0 C 94 % 1019,1 hPa 1,6 l/m 7,1 km/h (2 Bft) W-SW 7,0 C 7,4 C 17,4 km/h (3 Bft)
09.12.2013 07:00 7,9 C 94 % 1019,4 hPa 1,2 l/m 6,6 km/h (2 Bft) W-NW 7,0 C 7,5 C 15,8 km/h (3 Bft)
09.12.2013 08:00 8,1 C 94 % 1020,1 hPa 1,0 l/m 6,6 km/h (2 Bft) W-SW 7,2 C 7,8 C 15,8 km/h (3 Bft)
09.12.2013 09:00 8,2 C 94 % 1020,9 hPa 1,0 l/m 6,9 km/h (2 Bft) W 7,3 C 7,7 C 17,0 km/h (3 Bft)
09.12.2013 10:00 8,4 C 94 % 1021,9 hPa 0,4 l/m 6,3 km/h (2 Bft) W-SW 7,5 C 8,2 C 15,6 km/h (3 Bft)
09.12.2013 11:00 8,5 C 95 % 1022,5 hPa 0,4 l/m 5,6 km/h (2 Bft) SW 7,7 C 8,3 C 16,8 km/h (3 Bft)
09.12.2013 12:00 8,7 C 95 % 1023,1 hPa 0,2 l/m 4,9 km/h (1 Bft) W 7,9 C 8,7 C 12,4 km/h (2 Bft)
09.12.2013 13:00 8,7 C 95 % 1023,6 hPa 0,0 l/m 5,2 km/h (1 Bft) NW 7,9 C 8,7 C 14,2 km/h (3 Bft)
09.12.2013 14:00 8,7 C 95 % 1024,3 hPa 0,4 l/m 4,9 km/h (1 Bft) W-SW 7,9 C 8,7 C 12,9 km/h (3 Bft)
09.12.2013 15:00 8,6 C 95 % 1025,2 hPa 0,0 l/m 3,7 km/h (1 Bft) W-NW 7,8 C 8,6 C 11,7 km/h (2 Bft)
09.12.2013 16:00 8,6 C 95 % 1026,1 hPa 0,0 l/m 4,2 km/h (1 Bft) W-NW 7,8 C 8,6 C 11,7 km/h (2 Bft)
09.12.2013 17:00 8,6 C 95 % 1027,0 hPa 0,0 l/m 4,2 km/h (1 Bft) W-NW 7,8 C 8,6 C 11,6 km/h (2 Bft)
09.12.2013 18:00 8,5 C 95 % 1027,6 hPa 0,2 l/m 2,7 km/h (1 Bft) W 7,7 C 8,5 C 7,9 km/h (2 Bft)
09.12.2013 19:00 8,4 C 95 % 1028,3 hPa 0,0 l/m 2,6 km/h (1 Bft) W 7,6 C 8,4 C 7,8 km/h (2 Bft)
09.12.2013 20:00 8,5 C 95 % 1029,0 hPa 0,0 l/m 3,1 km/h (1 Bft) W-SW 7,7 C 8,5 C 8,4 km/h (2 Bft)
09.12.2013 21:00 8,5 C 95 % 1029,7 hPa 0,2 l/m 2,2 km/h (1 Bft) W-SW 7,8 C 8,5 C 7,1 km/h (2 Bft)
09.12.2013 22:00 8,5 C 96 % 1030,2 hPa 0,0 l/m 3,1 km/h (1 Bft) SW 7,9 C 8,5 C 7,9 km/h (2 Bft)
09.12.2013 23:00 8,5 C 95 % 1030,8 hPa 0,2 l/m 3,0 km/h (1 Bft) W-SW 7,7 C 8,5 C 8,5 km/h (2 Bft)
10.12.2013 00:00 8,5 C 95 % 1031,4 hPa 0,2 l/m 2,5 km/h (1 Bft) W 7,7 C 8,5 C 7,6 km/h (2 Bft)
10.12.2013 01:00 8,5 C 95 % 1031,8 hPa 0,2 l/m 2,2 km/h (1 Bft) W 7,7 C 8,5 C 6,8 km/h (2 Bft)
10.12.2013 02:00 8,4 C 96 % 1032,1 hPa 0,0 l/m 2,4 km/h (1 Bft) W-NW 7,8 C 8,4 C 6,7 km/h (2 Bft)
10.12.2013 03:00 8,3 C 96 % 1032,4 hPa 0,2 l/m 3,0 km/h (1 Bft) W-SW 7,7 C 8,3 C 9,4 km/h (2 Bft)
10.12.2013 04:00 8,2 C 96 % 1032,8 hPa 0,0 l/m 2,5 km/h (1 Bft) W-SW 7,6 C 8,2 C 7,8 km/h (2 Bft)
10.12.2013 05:00 8,1 C 95 % 1033,0 hPa 0,0 l/m 3,9 km/h (1 Bft) W-NW 7,4 C 8,1 C 10,1 km/h (2 Bft)
10.12.2013 06:00 8,1 C 95 % 1033,1 hPa 0,0 l/m 2,6 km/h (1 Bft) W 7,3 C 8,1 C 8,3 km/h (2 Bft)
10.12.2013 07:00 8,0 C 95 % 1033,5 hPa 0,0 l/m 3,2 km/h (1 Bft) SW 7,3 C 8,0 C 9,5 km/h (2 Bft)
10.12.2013 08:00 7,9 C 95 % 1034,0 hPa 0,0 l/m 2,2 km/h (1 Bft) W-SW 7,2 C 7,9 C 7,1 km/h (2 Bft)
10.12.2013 09:00 7,9 C 95 % 1034,5 hPa 0,0 l/m 2,6 km/h (1 Bft) W 7,1 C 7,9 C 8,4 km/h (2 Bft)
10.12.2013 10:00 7,7 C 95 % 1035,1 hPa 0,0 l/m 2,6 km/h (1 Bft) W 6,9 C 7,7 C 7,2 km/h (2 Bft)
10.12.2013 11:00 7,5 C 95 % 1035,3 hPa 0,0 l/m 3,3 km/h (1 Bft) SW 6,7 C 7,5 C 8,3 km/h (2 Bft)
10.12.2013 12:00 7,4 C 94 % 1035,4 hPa 0,0 l/m 2,0 km/h (1 Bft) W 6,5 C 7,4 C 6,1 km/h (2 Bft)
10.12.2013 13:00 7,2 C 94 % 1035,5 hPa 0,0 l/m 1,8 km/h (1 Bft) W 6,3 C 7,2 C 5,6 km/h (2 Bft)
10.12.2013 14:00 6,9 C 94 % 1035,6 hPa 0,0 l/m 2,0 km/h (1 Bft) W 6,0 C 6,9 C 5,7 km/h (2 Bft)
10.12.2013 15:00 6,6 C 94 % 1035,8 hPa 0,0 l/m 1,5 km/h (1 Bft) SW 5,7 C 6,6 C 5,1 km/h (1 Bft)
10.12.2013 16:00 6,5 C 94 % 1035,8 hPa 0,0 l/m 0,4 km/h (0 Bft) S 5,6 C 6,5 C 2,9 km/h (1 Bft)
10.12.2013 17:00 6,6 C 94 % 1035,6 hPa 0,0 l/m 1,2 km/h (1 Bft) SW 5,7 C 6,6 C 4,6 km/h (1 Bft)
10.12.2013 18:00 6,6 C 94 % 1035,6 hPa 0,0 l/m 2,6 km/h (1 Bft) SW 5,7 C 6,6 C 6,5 km/h (2 Bft)
10.12.2013 19:00 6,6 C 93 % 1035,2 hPa 0,0 l/m 2,3 km/h (1 Bft) SW 5,5 C 6,6 C 7,2 km/h (2 Bft)
10.12.2013 20:00 6,4 C 93 % 1035,1 hPa 0,0 l/m 3,6 km/h (1 Bft) S-SW 5,3 C 6,4 C 8,0 km/h (2 Bft)
10.12.2013 21:00 6,4 C 94 % 1035,1 hPa 0,0 l/m 1,1 km/h (1 Bft) SW 5,5 C 6,4 C 3,1 km/h (1 Bft)
10.12.2013 22:00 6,4 C 94 % 1035,0 hPa 0,0 l/m 0,1 km/h (0 Bft) N 5,5 C 6,4 C 0,5 km/h (0 Bft)
10.12.2013 23:00 5,5 C 94 % 1034,9 hPa 0,0 l/m 0,0 km/h (0 Bft) N 4,7 C 5,5 C 0,0 km/h (0 Bft)
11.12.2013 00:00 4,1 C 95 % 1034,9 hPa 0,0 l/m 0,1 km/h (0 Bft) S-SW 3,4 C 4,1 C 0,4 km/h (0 Bft)
11.12.2013 01:00 3,4 C 95 % 1034,9 hPa 0,0 l/m 1,3 km/h (1 Bft) SW 2,7 C 3,4 C 4,0 km/h (1 Bft)
11.12.2013 02:00 3,7 C 96 % 1034,7 hPa 0,0 l/m 1,7 km/h (1 Bft) S-SW 3,1 C 3,7 C 5,1 km/h (1 Bft)
11.12.2013 03:00 4,2 C 96 % 1034,8 hPa 0,0 l/m 3,0 km/h (1 Bft) S-SW 3,7 C 4,2 C 8,4 km/h (2 Bft)
11.12.2013 04:00 4,4 C 96 % 1034,9 hPa 0,0 l/m 1,7 km/h (1 Bft) S-SW 3,8 C 4,4 C 5,2 km/h (1 Bft)
11.12.2013 05:00 4,5 C 97 % 1034,6 hPa 0,0 l/m 1,5 km/h (1 Bft) W 4,1 C 4,5 C 5,3 km/h (1 Bft)
11.12.2013 06:00 4,7 C 97 % 1034,4 hPa 0,0 l/m 2,1 km/h (1 Bft) SW 4,2 C 4,7 C 6,4 km/h (2 Bft)
11.12.2013 07:00 4,7 C 97 % 1034,2 hPa 0,0 l/m 1,6 km/h (1 Bft) W 4,3 C 4,7 C 2,1 km/h (1 Bft)
11.12.2013 08:00 4,8 C 97 % 1034,3 hPa 0,0 l/m 2,7 km/h (1 Bft) S-SW 4,4 C 4,8 C 7,6 km/h (2 Bft)
11.12.2013 09:00 4,8 C 97 % 1034,5 hPa 0,0 l/m 2,7 km/h (1 Bft) S-SW 4,3 C 4,8 C 7,8 km/h (2 Bft)
11.12.2013 10:00 4,9 C 97 % 1034,8 hPa 0,0 l/m 3,2 km/h (1 Bft) SW 4,4 C 4,9 C 8,0 km/h (2 Bft)
11.12.2013 11:00 5,2 C 97 % 1034,6 hPa 0,0 l/m 2,9 km/h (1 Bft) S-SW 4,7 C 5,2 C 7,8 km/h (2 Bft)
11.12.2013 12:00 5,4 C 97 % 1034,2 hPa 0,0 l/m 2,4 km/h (1 Bft) W-NW 5,0 C 5,4 C 7,4 km/h (2 Bft)
11.12.2013 13:00 5,8 C 97 % 1033,7 hPa 0,0 l/m 2,6 km/h (1 Bft) SW 5,3 C 5,8 C 7,1 km/h (2 Bft)
11.12.2013 14:00 5,7 C 96 % 1033,6 hPa 0,0 l/m 3,3 km/h (1 Bft) SW 5,2 C 5,7 C 7,9 km/h (2 Bft)
11.12.2013 15:00 5,6 C 96 % 1033,6 hPa 0,0 l/m 2,2 km/h (1 Bft) S-SW 4,9 C 5,6 C 6,5 km/h (2 Bft)
11.12.2013 16:00 5,3 C 95 % 1033,7 hPa 0,0 l/m 1,1 km/h (1 Bft) S-SW 4,5 C 5,3 C 3,5 km/h (1 Bft)
11.12.2013 17:00 5,0 C 95 % 1033,7 hPa 0,0 l/m 2,3 km/h (1 Bft) S-SW 4,3 C 5,0 C 6,3 km/h (2 Bft)
11.12.2013 18:00 4,9 C 95 % 1033,7 hPa 0,0 l/m 1,8 km/h (1 Bft) SW 4,2 C 4,9 C 5,3 km/h (1 Bft)
11.12.2013 19:00 4,8 C 95 % 1033,6 hPa 0,0 l/m 2,1 km/h (1 Bft) SW 4,1 C 4,8 C 5,7 km/h (2 Bft)
11.12.2013 20:00 4,6 C 96 % 1033,6 hPa 0,0 l/m 2,1 km/h (1 Bft) W-SW 3,9 C 4,6 C 6,0 km/h (2 Bft)
11.12.2013 21:00 4,3 C 96 % 1033,5 hPa 0,0 l/m 2,1 km/h (1 Bft) S-SW 3,8 C 4,3 C 5,6 km/h (2 Bft)
11.12.2013 22:00 4,0 C 96 % 1033,3 hPa 0,0 l/m 2,6 km/h (1 Bft) S-SW 3,4 C 4,0 C 5,8 km/h (2 Bft)
11.12.2013 23:00 3,3 C 96 % 1033,3 hPa 0,0 l/m 1,5 km/h (1 Bft) S-SW 2,7 C 3,3 C 5,2 km/h (1 Bft)
12.12.2013 00:00 3,1 C 96 % 1033,1 hPa 0,0 l/m 1,7 km/h (1 Bft) S-SW 2,5 C 3,1 C 4,4 km/h (1 Bft)
12.12.2013 01:00 2,6 C 96 % 1032,7 hPa 0,2 l/m 2,7 km/h (1 Bft) S-SW 2,0 C 2,6 C 6,7 km/h (2 Bft)
12.12.2013 02:00 2,3 C 96 % 1032,3 hPa 0,0 l/m 3,4 km/h (1 Bft) S-SW 1,8 C 2,3 C 6,7 km/h (2 Bft)
12.12.2013 03:00 2,6 C 97 % 1032,1 hPa 0,0 l/m 1,9 km/h (1 Bft) S-SW 2,1 C 2,6 C 4,9 km/h (1 Bft)
12.12.2013 04:00 2,3 C 97 % 1031,8 hPa 0,0 l/m 2,4 km/h (1 Bft) S-SW 1,9 C 2,3 C 5,3 km/h (1 Bft)
12.12.2013 05:00 2,1 C 97 % 1031,5 hPa 0,0 l/m 2,5 km/h (1 Bft) S-SW 1,7 C 2,1 C 5,3 km/h (1 Bft)
12.12.2013 06:00 1,9 C 97 % 1031,2 hPa 0,0 l/m 3,1 km/h (1 Bft) S-SW 1,4 C 1,9 C 6,4 km/h (2 Bft)
12.12.2013 07:00 2,0 C 97 % 1031,0 hPa 0,0 l/m 3,1 km/h (1 Bft) S-SW 1,5 C 2,0 C 6,4 km/h (2 Bft)
12.12.2013 08:00 1,7 C 97 % 1030,8 hPa 0,0 l/m 2,7 km/h (1 Bft) S 1,3 C 1,7 C 6,0 km/h (2 Bft)
12.12.2013 09:00 1,3 C 97 % 1030,8 hPa 0,0 l/m 2,3 km/h (1 Bft) S-SW 0,9 C 1,3 C 5,5 km/h (2 Bft)
12.12.2013 10:00 1,0 C 97 % 1030,9 hPa 0,0 l/m 2,5 km/h (1 Bft) S-SO 0,6 C 1,0 C 6,0 km/h (2 Bft)
12.12.2013 11:00 1,3 C 97 % 1030,3 hPa 0,0 l/m 3,2 km/h (1 Bft) S-SW 0,9 C 1,3 C 6,9 km/h (2 Bft)
12.12.2013 12:00 1,7 C 97 % 1029,8 hPa 0,0 l/m 3,1 km/h (1 Bft) SW 1,3 C 1,7 C 6,7 km/h (2 Bft)
12.12.2013 13:00 2,1 C 97 % 1029,0 hPa 0,0 l/m 3,2 km/h (1 Bft) S 1,7 C 2,1 C 6,9 km/h (2 Bft)
12.12.2013 14:00 2,3 C 97 % 1028,3 hPa 0,0 l/m 2,7 km/h (1 Bft) S 1,9 C 2,3 C 6,1 km/h (2 Bft)
12.12.2013 15:00 2,4 C 97 % 1027,8 hPa 0,0 l/m 2,0 km/h (1 Bft) S-SO 2,0 C 2,4 C 4,6 km/h (1 Bft)
12.12.2013 16:00 2,2 C 97 % 1027,7 hPa 0,0 l/m 1,2 km/h (1 Bft) S 1,8 C 2,2 C 2,7 km/h (1 Bft)
12.12.2013 17:00 1,5 C 97 % 1027,8 hPa 0,0 l/m 1,3 km/h (1 Bft) S-SW 1,1 C 1,5 C 3,2 km/h (1 Bft)
12.12.2013 18:00 0,8 C 97 % 1027,5 hPa 0,2 l/m 0,6 km/h (0 Bft) S-SW 0,4 C 0,8 C 1,9 km/h (1 Bft)
12.12.2013 19:00 -0,1 C 97 % 1027,3 hPa 0,0 l/m 0,1 km/h (0 Bft) N -0,5 C -0,1 C 0,7 km/h (0 Bft)
12.12.2013 20:00 -0,6 C 97 % 1027,1 hPa 0,0 l/m 0,0 km/h (0 Bft) N -1,0 C -0,6 C 0,2 km/h (0 Bft)
12.12.2013 21:00 -0,8 C 97 % 1026,5 hPa 0,0 l/m 0,0 km/h (0 Bft) N -1,2 C -0,8 C 0,0 km/h (0 Bft)
12.12.2013 22:00 -1,3 C 97 % 1026,5 hPa 0,0 l/m 0,0 km/h (0 Bft) N -1,6 C -1,3 C 0,0 km/h (0 Bft)
12.12.2013 23:00 -1,3 C 98 % 1026,3 hPa 0,0 l/m 0,2 km/h (0 Bft) SW -1,6 C -1,3 C 0,6 km/h (0 Bft)
13.12.2013 00:00 -1,3 C 98 % 1026,0 hPa 0,0 l/m 0,0 km/h (0 Bft) N -1,6 C -1,3 C 0,0 km/h (0 Bft)
13.12.2013 01:00 -1,3 C 98 % 1025,9 hPa 0,0 l/m 0,0 km/h (0 Bft) N -1,6 C -1,3 C 0,0 km/h (0 Bft)
13.12.2013 02:00 -1,3 C 98 % 1025,7 hPa 0,0 l/m 0,1 km/h (0 Bft) N -1,6 C -1,3 C 0,4 km/h (0 Bft)
13.12.2013 03:00 -1,2 C 98 % 1025,4 hPa 0,0 l/m 0,0 km/h (0 Bft) N -1,5 C -1,2 C 0,0 km/h (0 Bft)
13.12.2013 04:00 -0,9 C 98 % 1025,1 hPa 0,0 l/m 0,2 km/h (0 Bft) SW -1,2 C -0,9 C 0,8 km/h (0 Bft)
13.12.2013 05:00 -1,1 C 98 % 1025,0 hPa 0,0 l/m 0,0 km/h (0 Bft) N -1,3 C -1,1 C 0,0 km/h (0 Bft)
13.12.2013 06:00 -1,3 C 98 % 1025,2 hPa 0,0 l/m 0,0 km/h (0 Bft) N -1,6 C -1,3 C 0,4 km/h (0 Bft)
13.12.2013 07:00 -1,7 C 98 % 1025,1 hPa 0,0 l/m 0,0 km/h (0 Bft) N -2,0 C -1,7 C 0,0 km/h (0 Bft)
13.12.2013 08:00 -1,4 C 98 % 1025,2 hPa 0,0 l/m 0,0 km/h (0 Bft) N -1,6 C -1,4 C 0,3 km/h (0 Bft)
13.12.2013 09:00 -0,7 C 98 % 1025,3 hPa 0,0 l/m 0,0 km/h (0 Bft) N -0,9 C -0,7 C 0,0 km/h (0 Bft)
13.12.2013 10:00 0,1 C 98 % 1025,4 hPa 0,0 l/m 0,5 km/h (0 Bft) S-SW -0,1 C 0,1 C 1,5 km/h (1 Bft)
13.12.2013 11:00 1,4 C 98 % 1025,0 hPa 0,2 l/m 1,9 km/h (1 Bft) S-SW 1,1 C 1,4 C 5,2 km/h (1 Bft)
13.12.2013 12:00 2,2 C 98 % 1024,5 hPa 0,0 l/m 2,7 km/h (1 Bft) SW 1,9 C 2,2 C 7,6 km/h (2 Bft)
13.12.2013 13:00 3,1 C 98 % 1024,1 hPa 0,0 l/m 1,9 km/h (1 Bft) SW 2,8 C 3,1 C 5,7 km/h (2 Bft)
13.12.2013 14:00 3,3 C 98 % 1023,9 hPa 0,0 l/m 2,0 km/h (1 Bft) S-SW 3,0 C 3,3 C 5,7 km/h (2 Bft)
13.12.2013 15:00 2,7 C 98 % 1023,8 hPa 0,0 l/m 0,7 km/h (0 Bft) S-SW 2,4 C 2,7 C 2,5 km/h (1 Bft)
13.12.2013 16:00 1,3 C 98 % 1023,5 hPa 0,0 l/m 0,2 km/h (0 Bft) SW 1,0 C 1,3 C 0,7 km/h (0 Bft)
13.12.2013 17:00 0,7 C 98 % 1023,5 hPa 0,0 l/m 0,1 km/h (0 Bft) N 0,4 C 0,7 C 0,7 km/h (0 Bft)
13.12.2013 18:00 -0,3 C 98 % 1023,5 hPa 0,0 l/m 0,0 km/h (0 Bft) N -0,6 C -0,3 C 0,0 km/h (0 Bft)
13.12.2013 19:00 -1,1 C 98 % 1023,6 hPa 0,0 l/m 0,0 km/h (0 Bft) N -1,3 C -1,1 C 0,0 km/h (0 Bft)
13.12.2013 20:00 -1,4 C 98 % 1023,7 hPa 0,0 l/m 0,0 km/h (0 Bft) N -1,7 C -1,4 C 0,0 km/h (0 Bft)
13.12.2013 21:00 -1,4 C 98 % 1023,6 hPa 0,0 l/m 0,0 km/h (0 Bft) N -1,7 C -1,4 C 0,0 km/h (0 Bft)
13.12.2013 22:00 -1,7 C 97 % 1023,4 hPa 0,0 l/m 0,0 km/h (0 Bft) N -2,1 C -1,7 C 0,0 km/h (0 Bft)
13.12.2013 23:00 -2,0 C 97 % 1023,5 hPa 0,0 l/m 0,0 km/h (0 Bft) N -2,5 C -2,0 C 0,0 km/h (0 Bft)
14.12.2013 00:00 -2,7 C 96 % 1023,4 hPa 0,0 l/m 0,0 km/h (0 Bft) N -3,2 C -2,7 C 0,0 km/h (0 Bft)
14.12.2013 01:00 -2,9 C 96 % 1023,1 hPa 0,0 l/m 0,0 km/h (0 Bft) N -3,4 C -2,9 C 0,0 km/h (0 Bft)
14.12.2013 02:00 -3,3 C 95 % 1022,9 hPa 0,0 l/m 0,0 km/h (0 Bft) N -3,9 C -3,3 C 0,0 km/h (0 Bft)
14.12.2013 03:00 -3,9 C 95 % 1022,7 hPa 0,0 l/m 0,0 km/h (0 Bft) N -4,6 C -3,9 C 0,0 km/h (0 Bft)
14.12.2013 04:00 -4,2 C 95 % 1022,6 hPa 0,0 l/m 0,0 km/h (0 Bft) N -4,8 C -4,2 C 0,0 km/h (0 Bft)
14.12.2013 05:00 -3,6 C 95 % 1022,5 hPa 0,0 l/m 0,0 km/h (0 Bft) N -4,2 C -3,6 C 0,0 km/h (0 Bft)
14.12.2013 06:00 -3,5 C 95 % 1022,8 hPa 0,0 l/m 0,0 km/h (0 Bft) N -4,2 C -3,5 C 0,0 km/h (0 Bft)
14.12.2013 07:00 -3,5 C 95 % 1022,8 hPa 0,0 l/m 0,0 km/h (0 Bft) N -4,1 C -3,5 C 0,0 km/h (0 Bft)
14.12.2013 08:00 -3,6 C 95 % 1023,1 hPa 0,0 l/m 0,1 km/h (0 Bft) N -4,2 C -3,6 C 0,7 km/h (0 Bft)
14.12.2013 09:00 -1,3 C 97 % 1023,5 hPa 0,0 l/m 0,7 km/h (0 Bft) SW -1,8 C -1,3 C 2,3 km/h (1 Bft)
14.12.2013 10:00 -0,1 C 97 % 1024,1 hPa 0,0 l/m 1,5 km/h (1 Bft) SW -0,5 C -0,1 C 4,0 km/h (1 Bft)
14.12.2013 11:00 0,5 C 98 % 1024,2 hPa 0,0 l/m 3,2 km/h (1 Bft) S-SW 0,2 C 0,5 C 7,6 km/h (2 Bft)
14.12.2013 12:00 1,4 C 98 % 1024,2 hPa 0,0 l/m 2,9 km/h (1 Bft) S-SW 1,1 C 1,4 C 8,2 km/h (2 Bft)
14.12.2013 13:00 1,8 C 98 % 1024,4 hPa 0,0 l/m 3,0 km/h (1 Bft) SW 1,5 C 1,8 C 9,0 km/h (2 Bft)
14.12.2013 14:00 1,9 C 98 % 1024,8 hPa 0,0 l/m 2,8 km/h (1 Bft) SW 1,7 C 1,9 C 7,1 km/h (2 Bft)
14.12.2013 15:00 2,2 C 98 % 1025,6 hPa 0,2 l/m 2,4 km/h (1 Bft) S-SW 1,9 C 2,2 C 6,8 km/h (2 Bft)
14.12.2013 16:00 2,3 C 98 % 1026,2 hPa 0,0 l/m 2,1 km/h (1 Bft) SW 2,0 C 2,3 C 5,9 km/h (2 Bft)
14.12.2013 17:00 2,4 C 98 % 1027,0 hPa 0,0 l/m 2,4 km/h (1 Bft) SW 2,1 C 2,4 C 6,0 km/h (2 Bft)
14.12.2013 18:00 3,3 C 98 % 1027,3 hPa 0,0 l/m 3,1 km/h (1 Bft) S-SW 3,0 C 3,3 C 8,8 km/h (2 Bft)
14.12.2013 19:00 4,1 C 98 % 1027,7 hPa 0,0 l/m 2,9 km/h (1 Bft) W 3,8 C 4,1 C 7,8 km/h (2 Bft)
14.12.2013 20:00 4,2 C 98 % 1028,1 hPa 0,0 l/m 2,0 km/h (1 Bft) SW 3,9 C 4,2 C 5,9 km/h (2 Bft)
14.12.2013 21:00 4,2 C 98 % 1028,2 hPa 0,0 l/m 2,2 km/h (1 Bft) S-SW 3,9 C 4,2 C 6,2 km/h (2 Bft)
14.12.2013 22:00 3,5 C 98 % 1028,1 hPa 0,0 l/m 2,1 km/h (1 Bft) S-SW 3,2 C 3,5 C 5,1 km/h (1 Bft)
14.12.2013 23:00 2,0 C 98 % 1028,0 hPa 0,0 l/m 0,5 km/h (0 Bft) S-SO 1,7 C 2,0 C 1,3 km/h (1 Bft)
15.12.2013 00:00 1,7 C 98 % 1027,6 hPa 0,0 l/m 1,5 km/h (1 Bft) S 1,5 C 1,7 C 4,0 km/h (1 Bft)
15.12.2013 01:00 1,4 C 98 % 1026,9 hPa 0,0 l/m 1,5 km/h (1 Bft) S-SW 1,1 C 1,4 C 4,0 km/h (1 Bft)
15.12.2013 02:00 1,6 C 98 % 1026,4 hPa 0,2 l/m 4,1 km/h (1 Bft) SW 1,3 C 1,6 C 9,1 km/h (2 Bft)
15.12.2013 03:00 2,0 C 98 % 1025,7 hPa 0,0 l/m 6,0 km/h (2 Bft) S-SW 1,7 C 1,9 C 12,6 km/h (3 Bft)
15.12.2013 04:00 2,5 C 98 % 1024,8 hPa 0,0 l/m 7,1 km/h (2 Bft) S-SW 2,2 C 1,7 C 14,9 km/h (3 Bft)
15.12.2013 05:00 3,0 C 98 % 1024,8 hPa 0,0 l/m 3,4 km/h (1 Bft) S-SW 2,7 C 3,0 C 8,6 km/h (2 Bft)
15.12.2013 06:00 3,1 C 96 % 1024,4 hPa 0,0 l/m 2,8 km/h (1 Bft) S 2,5 C 3,1 C 6,5 km/h (2 Bft)
15.12.2013 07:00 3,6 C 92 % 1024,3 hPa 0,0 l/m 4,6 km/h (1 Bft) SW 2,4 C 3,6 C 9,5 km/h (2 Bft)
15.12.2013 08:00 4,5 C 88 % 1024,4 hPa 0,2 l/m 6,8 km/h (2 Bft) SW 2,7 C 4,0 C 14,8 km/h (3 Bft)
15.12.2013 09:00 4,8 C 88 % 1025,1 hPa 0,0 l/m 7,0 km/h (2 Bft) SW 3,0 C 4,1 C 16,6 km/h (3 Bft)
15.12.2013 10:00 4,8 C 90 % 1025,9 hPa 0,0 l/m 6,0 km/h (2 Bft) S-SW 3,3 C 4,6 C 14,5 km/h (3 Bft)
15.12.2013 11:00 5,0 C 92 % 1026,3 hPa 0,2 l/m 5,0 km/h (1 Bft) S-SW 3,8 C 5,0 C 12,5 km/h (2 Bft)
15.12.2013 12:00 5,6 C 90 % 1026,2 hPa 0,0 l/m 6,4 km/h (2 Bft) S-SW 4,2 C 5,4 C 14,8 km/h (3 Bft)
15.12.2013 13:00 5,9 C 91 % 1026,4 hPa 0,0 l/m 5,0 km/h (1 Bft) SW 4,5 C 5,9 C 12,8 km/h (3 Bft)
15.12.2013 14:00 6,2 C 91 % 1026,7 hPa 0,0 l/m 6,0 km/h (2 Bft) SW 4,9 C 5,9 C 13,6 km/h (3 Bft)
15.12.2013 15:00 6,5 C 91 % 1026,8 hPa 0,0 l/m 4,8 km/h (1 Bft) S 5,2 C 6,5 C 10,8 km/h (2 Bft)
15.12.2013 16:00 6,4 C 91 % 1027,4 hPa 0,0 l/m 3,4 km/h (1 Bft) SW 5,0 C 6,4 C 8,4 km/h (2 Bft)
15.12.2013 17:00 6,5 C 90 % 1027,6 hPa 0,0 l/m 5,0 km/h (1 Bft) SW 5,0 C 6,5 C 10,7 km/h (2 Bft)
15.12.2013 18:00 5,7 C 90 % 1027,7 hPa 0,0 l/m 5,2 km/h (1 Bft) SW 4,2 C 5,6 C 10,9 km/h (2 Bft)
15.12.2013 19:00 4,1 C 91 % 1027,9 hPa 0,0 l/m 2,1 km/h (1 Bft) SW 2,8 C 4,1 C 5,2 km/h (1 Bft)
15.12.2013 20:00 3,2 C 93 % 1027,9 hPa 0,0 l/m 0,8 km/h (0 Bft) S-SW 2,1 C 3,2 C 2,7 km/h (1 Bft)
15.12.2013 21:00 2,8 C 93 % 1027,4 hPa 0,0 l/m 1,1 km/h (0 Bft) S-SO 1,8 C 2,8 C 3,1 km/h (1 Bft)
15.12.2013 22:00 2,8 C 94 % 1027,3 hPa 0,0 l/m 0,4 km/h (0 Bft) S-SO 1,9 C 2,8 C 1,9 km/h (1 Bft)
15.12.2013 23:00 3,6 C 93 % 1027,1 hPa 0,0 l/m 0,7 km/h (0 Bft) SO 2,6 C 3,6 C 2,5 km/h (1 Bft)
Min-Datum _ 14.12.13 15.12.13 09.12.13 - 10.12.13 - 14.12.13 14.12.13 10.12.13
_ Min-Zeit 03:55 08:15 00:05 - 16:25 - 03:55 03:55 16:25
Minimum _ -4,7 C 88 % 1018,0 hPa - 0,0 km/h (0 Bft) - -5,4 C -4,7 C 0,0 km/h (0 Bft)
Max-Datum _ 09.12.13 12.12.13 10.12.13 09.12.13 09.12.13 - 09.12.13 09.12.13 09.12.13
_ Max-Zeit 12:05 22:20 15:00 03:05 01:50 - 12:05 13:00 00:20
Maximum _ 8,7 C 98 % 1035,9 hPa 1,6 l/m 11,3 km/h
W-NW (2 Bft)
- 7,9 C 8,7 C 29,0 km/h
W-NW (5 Bft)
Durchschnitt _ 3,7 C 96 % 1028,2 hPa #15,6 l/m 2,5 km/h (1 Bft) SW 3,0 C 3,6 C 6,5 km/h (2 Bft)